createdAt,value
2023-03-06T00:03:28.364Z,29.92
2023-03-06T00:08:31.092Z,31.60
2023-03-06T00:13:35.395Z,27.90
2023-03-06T00:18:37.958Z,29.52
2023-03-06T00:23:41.574Z,28.08
2023-03-06T00:28:44.029Z,30.52
2023-03-06T00:33:47.248Z,30.00
2023-03-06T00:38:50.303Z,32.90
2023-03-06T00:43:53.191Z,28.10
2023-03-06T00:48:56.191Z,30.35
2023-03-06T00:53:58.782Z,29.48
2023-03-06T00:59:01.309Z,28.33
2023-03-06T01:04:04.370Z,29.70
2023-03-06T01:09:06.887Z,31.52
2023-03-06T01:14:11.135Z,30.35
2023-03-06T01:19:13.662Z,33.60
2023-03-06T01:24:16.726Z,36.58
2023-03-06T01:29:20.239Z,33.63
2023-03-06T01:34:22.795Z,33.45
2023-03-06T01:39:25.904Z,34.80
2023-03-06T01:44:28.492Z,39.13
2023-03-06T01:49:37.869Z,35.92
2023-03-06T01:54:51.996Z,37.88
2023-03-06T02:00:03.548Z,38.40
2023-03-06T02:05:17.298Z,40.08
2023-03-06T02:10:22.334Z,40.15
2023-03-06T02:15:27.446Z,41.78
2023-03-06T02:20:35.609Z,39.55
2023-03-06T02:25:45.928Z,38.67
2023-03-06T02:30:52.767Z,41.63
2023-03-06T02:36:00.189Z,35.28
2023-03-06T02:41:07.247Z,37.63
2023-03-06T02:46:10.344Z,38.60
2023-03-06T02:51:13.036Z,36.17
2023-03-06T02:56:15.923Z,39.90
2023-03-06T03:01:19.068Z,40.35
2023-03-06T03:06:23.106Z,39.85
2023-03-06T03:11:26.722Z,40.55
2023-03-06T03:16:29.861Z,44.38
2023-03-06T03:21:34.341Z,40.80
2023-03-06T03:26:37.462Z,35.58
2023-03-06T03:31:48.100Z,36.83
2023-03-06T03:36:51.151Z,39.22
2023-03-06T03:41:53.669Z,41.10
2023-03-06T03:46:57.432Z,43.00
2023-03-06T03:52:01.211Z,34.13
2023-03-06T03:57:07.979Z,36.35
2023-03-06T04:02:15.652Z,53.40
2023-03-06T04:07:30.727Z,56.15
2023-03-06T04:12:33.236Z,65.25
2023-03-06T04:17:36.900Z,67.07
2023-03-06T04:22:42.906Z,68.00
2023-03-06T04:27:48.589Z,61.38
2023-03-06T04:32:53.910Z,60.42
2023-03-06T04:37:57.543Z,58.28
2023-03-06T04:43:04.178Z,50.13
2023-03-06T04:48:06.814Z,58.30
2023-03-06T04:53:09.896Z,54.28
2023-03-06T04:58:14.142Z,47.55
2023-03-06T05:03:18.077Z,53.35
2023-03-06T05:08:21.198Z,57.72
2023-03-06T05:13:24.878Z,61.13
2023-03-06T05:18:28.713Z,48.10
2023-03-06T05:23:33.558Z,46.80
2023-03-06T05:28:38.632Z,47.72
2023-03-06T05:39:33.375Z,42.22
2023-03-06T05:44:45.310Z,43.17
2023-03-06T05:49:49.708Z,48.85
2023-03-06T05:54:56.355Z,67.50
2023-03-06T06:00:00.098Z,53.15
2023-03-06T06:05:05.943Z,51.80
2023-03-06T06:10:12.626Z,70.28
2023-03-06T06:15:17.282Z,84.88
2023-03-06T06:20:20.683Z,69.30
2023-03-06T06:25:26.461Z,73.35
2023-03-06T06:30:36.595Z,37.45
2023-03-06T06:35:49.235Z,44.10
2023-03-06T06:41:19.344Z,42.42
2023-03-06T06:46:59.006Z,44.42
2023-03-06T06:51:57.554Z,44.17
2023-03-06T06:57:01.729Z,48.90
2023-03-06T07:02:08.677Z,42.00
2023-03-06T07:07:13.790Z,40.85
2023-03-06T07:12:18.816Z,46.22
2023-03-06T07:17:24.418Z,38.72
2023-03-06T07:22:32.014Z,36.38
2023-03-06T07:27:52.838Z,42.45
2023-03-06T07:32:57.576Z,42.08
2023-03-06T07:38:03.129Z,43.55
2023-03-06T07:43:19.161Z,66.32
2023-03-06T07:48:34.048Z,55.53
2023-03-06T07:53:37.685Z,60.50
2023-03-06T07:58:50.106Z,60.65
2023-03-06T08:04:02.376Z,74.97
2023-03-06T08:09:05.466Z,97.25
2023-03-06T08:14:09.378Z,80.30
2023-03-06T08:19:12.597Z,71.97
2023-03-06T08:24:17.561Z,47.55
2023-03-06T08:29:20.453Z,32.85
2023-03-06T08:34:26.612Z,40.08
2023-03-06T08:39:29.786Z,32.05
2023-03-06T08:44:33.297Z,33.33
2023-03-06T08:49:39.854Z,32.00
2023-03-06T08:54:43.999Z,36.38
2023-03-06T08:59:46.612Z,27.23
2023-03-06T09:04:50.986Z,28.45
2023-03-06T09:09:58.590Z,37.85
2023-03-06T09:15:04.667Z,34.70
2023-03-06T09:20:14.456Z,35.25
2023-03-06T09:25:23.781Z,37.58
2023-03-06T09:30:26.995Z,29.30
2023-03-06T09:35:30.550Z,29.58
2023-03-06T09:40:59.212Z,27.30
2023-03-06T09:46:39.904Z,26.27
2023-03-06T09:52:24.914Z,37.53
2023-03-06T09:57:28.780Z,32.05
2023-03-06T10:02:42.096Z,27.50
2023-03-06T10:08:36.422Z,25.70
2023-03-06T10:13:42.391Z,24.67
2023-03-06T10:18:47.264Z,29.40
2023-03-06T10:24:04.480Z,27.95
2023-03-06T10:29:22.656Z,41.97
2023-03-06T10:34:33.658Z,32.53
2023-03-06T10:39:45.990Z,28.75
2023-03-06T10:44:50.722Z,27.52
2023-03-06T10:50:07.338Z,31.95
2023-03-06T10:55:33.098Z,24.02
2023-03-06T11:00:39.296Z,25.55
2023-03-06T11:06:13.318Z,22.00
2023-03-06T11:11:36.905Z,23.70
2023-03-06T11:16:41.751Z,23.42
2023-03-06T11:22:28.153Z,26.60
2023-03-06T11:27:35.963Z,19.35
2023-03-06T11:32:51.182Z,21.48
2023-03-06T11:38:06.876Z,23.52
2023-03-06T11:43:26.413Z,66.43
2023-03-06T11:48:43.776Z,31.17
2023-03-06T11:53:50.497Z,20.48
2023-03-06T11:59:14.298Z,18.17
2023-03-06T12:04:40.210Z,19.92
2023-03-06T12:09:50.923Z,14.95
2023-03-06T12:14:53.811Z,39.90
2023-03-06T12:20:15.632Z,12.35
2023-03-06T12:25:23.753Z,12.27
2023-03-06T12:31:02.834Z,11.88
2023-03-06T12:36:35.396Z,13.55
2023-03-06T12:41:44.417Z,15.15
2023-03-06T12:46:56.017Z,16.20
2023-03-06T12:52:03.636Z,8.07
2023-03-06T12:57:09.497Z,10.43
2023-03-06T13:02:14.791Z,8.52
2023-03-06T13:07:49.341Z,7.30
2023-03-06T13:12:58.099Z,10.27
2023-03-06T13:18:02.196Z,8.48
2023-03-06T13:23:30.332Z,8.52
2023-03-06T13:28:51.225Z,15.10
2023-03-06T13:33:55.862Z,14.57
2023-03-06T13:39:09.075Z,15.32
2023-03-06T13:44:27.521Z,11.80
2023-03-06T13:49:35.045Z,9.68
2023-03-06T14:01:14.718Z,10.63
2023-03-06T14:06:38.102Z,13.02
2023-03-06T14:11:51.184Z,5.97
2023-03-06T14:16:54.618Z,10.02
2023-03-06T14:21:57.968Z,11.35
2023-03-06T14:27:01.825Z,15.95
2023-03-06T14:32:10.090Z,7.35
2023-03-06T14:37:24.893Z,17.63
2023-03-06T14:42:29.283Z,6.65
2023-03-06T14:47:37.336Z,11.82
2023-03-06T14:52:41.403Z,6.90
2023-03-06T14:57:44.188Z,7.05
2023-03-06T15:02:48.752Z,5.28
2023-03-06T15:07:54.225Z,6.35
2023-03-06T15:13:08.383Z,6.63
2023-03-06T15:18:35.650Z,6.93
2023-03-06T15:23:44.031Z,5.93
2023-03-06T15:29:17.020Z,5.07
2023-03-06T15:34:24.019Z,7.57
2023-03-06T15:39:38.304Z,6.65
2023-03-06T15:44:41.008Z,6.50
2023-03-06T15:49:43.381Z,4.22
2023-03-06T15:54:45.867Z,6.53
2023-03-06T15:59:48.280Z,8.57
2023-03-06T16:04:51.961Z,8.05
2023-03-06T16:09:55.618Z,5.53
2023-03-06T16:15:01.610Z,9.00
2023-03-06T16:20:06.367Z,5.85
2023-03-06T16:25:09.167Z,7.10
2023-03-06T16:30:18.967Z,6.07
2023-03-06T16:35:21.555Z,6.70
2023-03-06T16:40:29.205Z,6.82
2023-03-06T16:50:39.020Z,5.43
2023-03-06T16:55:41.841Z,8.85
2023-03-06T17:00:44.257Z,7.60
2023-03-06T17:05:46.715Z,4.93
2023-03-06T17:10:50.251Z,5.10
2023-03-06T17:15:59.395Z,10.52
2023-03-06T17:21:01.970Z,5.45
2023-03-06T17:26:19.479Z,6.47
2023-03-06T17:31:25.580Z,8.23
2023-03-06T17:36:29.841Z,10.50
2023-03-06T17:41:34.372Z,18.45
2023-03-06T17:46:36.901Z,14.50
2023-03-06T17:51:39.441Z,18.15
2023-03-06T17:56:42.405Z,31.23
2023-03-06T18:01:50.596Z,44.00
2023-03-06T18:06:59.602Z,50.97
2023-03-06T18:12:02.413Z,47.85
2023-03-06T18:17:04.817Z,32.88
2023-03-06T18:22:07.179Z,21.80
2023-03-06T18:27:09.703Z,17.38
2023-03-06T18:32:12.450Z,8.68
2023-03-06T18:37:14.985Z,6.05
2023-03-06T18:42:18.739Z,9.23
2023-03-06T18:47:21.266Z,6.13
2023-03-06T18:52:23.497Z,7.95
2023-03-06T18:57:26.016Z,4.93
2023-03-06T19:02:28.379Z,5.32
2023-03-06T19:07:30.823Z,5.03
2023-03-06T19:12:35.708Z,6.03
2023-03-06T19:17:38.446Z,5.38
2023-03-06T19:22:41.267Z,7.68
2023-03-06T19:27:46.237Z,5.05
2023-03-06T19:32:49.087Z,4.28
2023-03-06T19:37:52.716Z,3.75
2023-03-06T19:42:55.887Z,5.18
2023-03-06T19:48:01.152Z,5.72
2023-03-06T19:53:04.752Z,3.70
2023-03-06T19:58:07.883Z,4.90
2023-03-06T20:03:10.237Z,3.28
2023-03-06T20:08:12.640Z,3.78
2023-03-06T20:13:16.626Z,3.92
2023-03-06T20:18:19.607Z,4.05
2023-03-06T20:23:22.020Z,4.43
2023-03-06T20:28:24.526Z,4.38
2023-03-06T20:33:27.850Z,6.88
2023-03-06T20:38:30.723Z,4.45
2023-03-06T20:43:33.238Z,10.93
2023-03-06T20:48:36.117Z,10.27
2023-03-06T20:53:39.077Z,3.47
2023-03-06T20:58:42.064Z,4.38
2023-03-06T21:03:44.825Z,4.10
2023-03-06T21:08:47.882Z,4.13
2023-03-06T21:13:50.873Z,4.82
2023-03-06T21:18:56.179Z,5.65
2023-03-06T21:23:59.265Z,7.07
2023-03-06T21:29:02.989Z,7.65
2023-03-06T21:34:06.474Z,4.35
2023-03-06T21:39:08.883Z,4.32
2023-03-06T21:44:11.269Z,8.18
2023-03-06T21:49:13.633Z,15.82
2023-03-06T21:54:16.410Z,8.27
2023-03-06T21:59:19.204Z,9.57
2023-03-06T22:04:23.718Z,6.90
2023-03-06T22:09:26.158Z,6.13
2023-03-06T22:14:29.698Z,5.78
2023-03-06T22:19:33.428Z,6.90
2023-03-06T22:24:36.274Z,6.95
2023-03-06T22:29:39.076Z,7.03
2023-03-06T22:34:42.057Z,8.60
2023-03-06T22:39:44.376Z,15.02
2023-03-06T22:44:47.845Z,9.15
2023-03-06T22:49:50.718Z,10.60
2023-03-06T22:54:53.488Z,8.40
2023-03-06T22:59:56.225Z,7.63
2023-03-06T23:05:00.842Z,5.88
2023-03-06T23:10:07.089Z,4.07
2023-03-06T23:15:28.626Z,5.60
2023-03-06T23:20:49.803Z,5.65
2023-03-06T23:26:14.922Z,6.25
2023-03-06T23:31:22.769Z,7.07
2023-03-06T23:36:25.606Z,4.43
2023-03-06T23:41:29.339Z,5.03
2023-03-06T23:46:32.457Z,5.53
2023-03-06T23:51:34.977Z,3.90
2023-03-06T23:56:37.625Z,4.72
